LIMCLSZA

Guest
Details From LIMC - Milano Malpensa
To LSZA - Lugano
Flight Number -
Tags Routegen Generated
Created
Modified
Stats Distance 23 nm / 43 km
Max Altitude 100 ft / 30 m
Waypoints 5
Social Downloads 4
Likes 0
Share VATSIM

Download

Looking for another format? Having issues loading an existing format? Contact us
Advertisement - Login to hide

Notes

Departing runway 34 LIMC. Arriving runway 1 LSZA.

Route

LIMC +45.72_+008.70 +45.82_+008.79 +45.93_+008.87 LSZA

ID Type Via Altitude Latitude Longitude Leg Dist Tot Dist Heading (true) Name
O LIMC APT - 0 ft / 0 m 45.64546˚ 8.71872˚ - 0 nm - -
+45.72_+008.70 LATLON - 100 ft / 30 m 45.71664˚ 8.70006˚ 4 nm 4 nm 350° / 350° -
+45.82_+008.79 LATLON - 100 ft / 30 m 45.82333˚ 8.78715˚ 7 nm 11 nm 30° / 30° -
+45.93_+008.87 LATLON - 100 ft / 30 m 45.93001˚ 8.87425˚ 7 nm 19 nm 30° / 30° -
O LSZA APT - 0 ft / 0 m 45.99853˚ 8.90776˚ 4 nm 23 nm 19° / 19° Lugano

Altitude Profile

Advertisement - Login to hide

LIMC

Details ICAO LIMC (MXP)
Name Milano Malpensa
Region Italy
Timezone Europe/Rome (UTC+1.0)
Stats Elevation 767 ft / 234 m (AMSL)
Location 45.630606° 8.728111°
Runways 2
Magnetic Variation 2.377° E

METAR

LIMC 140620Z 36005KT 9999 BKN045 03/M01 Q1009 NOSIG

Decode

TAF

TAF LIMC 140500Z 1406/1512 VRB05KT 9999 SCT050 TEMPO 1406/1408 2500 BCFG

Decode

Departure Runways

ID Width Length Bearing (true) Bearing (mag) Surface Threshold Offset Overrun Length
17L 197 ft / 60 m 12,869 ft / 3,923 m 169.62° 167.24° Asphalt 3,094 ft / 943 m 0 ft / 0 m
17R 197 ft / 60 m 12,869 ft / 3,923 m 169.62° 167.24° Asphalt 0 ft / 0 m 0 ft / 0 m
35L 197 ft / 60 m 12,869 ft / 3,923 m 349.62° 347.24° Asphalt 1,329 ft / 405 m 0 ft / 0 m
35R 197 ft / 60 m 12,869 ft / 3,923 m 349.62° 347.24° Asphalt 0 ft / 0 m 0 ft / 0 m

LSZA

Details ICAO LSZA (LUG)
Name Lugano
Region Switzerland
Timezone Europe/Zurich (UTC+1.0)
Stats Elevation 915 ft / 279 m (AMSL)
Location 46.004275° 8.910579°
Runways 1
Magnetic Variation 2.423° E

METAR

LSZA 140620Z VRB02KT 9999 BKN048 01/M01 Q1009 NOSIG

Decode

TAF

Not found

Destination Runways

ID Width Length Bearing (true) Bearing (mag) Surface Threshold Offset Overrun Length
01 98 ft / 30 m 4,430 ft / 1,350 m 18.79° 16.37° Asphalt 361 ft / 110 m 0 ft / 0 m
19 98 ft / 30 m 4,430 ft / 1,350 m 198.79° 196.37° Asphalt 673 ft / 205 m 0 ft / 0 m

Approach Navaids

Runway Type Ident Frequency Range Bearing (true) Bearing (mag) Slope Elevation
01 Localiser ILU 111.50 MHz 18 nm / 33 km 18.79° 16.37° - 928 ft / 283 m (AMSL)
01 Glidescope ILU 111.50 MHz 10 nm / 19 km 19.99° 17.57° 6.00° 928 ft / 283 m (AMSL)
01 DME ILU 111.50 MHz 18 nm / 33 km - - - 928 ft / 283 m (AMSL)

Popular Alternatives